Enoch, Utah
Current Conditions -  °F | °C
As of 1:53 PM on Tuesday 21 Oct 2014 (Local Time) from KCDC Reporting Station
Clear Clear  
Wind Chill: 69°   Ceiling: Unl
Heat Index: 69°   Visibility: 10mi
Dew Point: 38°   Wind: 15mph
Humidity: 32%   Direction: 220°SW
Pressure: 30"   Gusts: 25mph
Location:  37.7617°N, 113.219°W
Report Text: KCDC 211953Z AUTO 22013G22KT 10SM CLR 21/03 A3000 RMK AO2 PK WND 21028/1916 SLP098 T02060033 TSNO
Loading
Personal Weather Stations






























Interactive Weather Map
Tropical Storm Tracking
New forecast layout! Learn more

10-Day Weather Forecast

Advertisements
Track Severe Weather on mobile